createdAt,value
2023-03-08T00:01:34.400Z,12.60
2023-03-08T00:03:37.274Z,12.25
2023-03-08T00:05:41.493Z,13.00
2023-03-08T00:07:44.224Z,13.30
2023-03-08T00:09:47.043Z,15.13
2023-03-08T00:11:49.897Z,16.25
2023-03-08T00:13:52.757Z,14.35
2023-03-08T00:15:59.577Z,16.35
2023-03-08T00:18:02.433Z,14.55
2023-03-08T00:20:07.045Z,16.17
2023-03-08T00:22:12.397Z,15.30
2023-03-08T00:24:16.802Z,17.33
2023-03-08T00:26:19.613Z,12.77
2023-03-08T00:28:22.771Z,13.60
2023-03-08T00:30:28.833Z,14.23
2023-03-08T00:32:31.675Z,15.00
2023-03-08T00:34:34.479Z,11.82
2023-03-08T00:36:37.754Z,11.55
2023-03-08T00:38:41.973Z,12.27
2023-03-08T00:40:44.783Z,11.38
2023-03-08T00:42:47.632Z,13.35
2023-03-08T00:44:50.806Z,13.35
2023-03-08T00:46:53.570Z,11.30
2023-03-08T00:48:56.413Z,11.57
2023-03-08T00:50:59.164Z,11.32
2023-03-08T00:53:01.959Z,11.93
2023-03-08T00:55:06.892Z,11.88
2023-03-08T00:59:12.385Z,11.85
2023-03-08T01:01:18.114Z,12.27
2023-03-08T01:03:24.111Z,11.70
2023-03-08T01:05:27.068Z,12.13
2023-03-08T01:07:29.868Z,13.07
2023-03-08T01:09:32.732Z,12.77
2023-03-08T01:11:37.528Z,11.40
2023-03-08T01:13:40.343Z,14.23
2023-03-08T01:15:43.572Z,13.63
2023-03-08T01:17:46.346Z,13.02
2023-03-08T01:19:49.832Z,10.43
2023-03-08T01:21:54.134Z,12.82
2023-03-08T01:23:57.387Z,12.68
2023-03-08T01:26:01.135Z,11.95
2023-03-08T01:28:05.393Z,13.48
2023-03-08T01:30:09.580Z,13.75
2023-03-08T01:32:12.688Z,13.75
2023-03-08T01:34:16.556Z,11.13
2023-03-08T01:36:21.674Z,13.23
2023-03-08T01:38:24.800Z,12.80
2023-03-08T01:40:27.653Z,10.57
2023-03-08T01:42:30.539Z,16.00
2023-03-08T01:44:54.123Z,13.02
2023-03-08T01:46:57.046Z,15.98
2023-03-08T01:49:16.793Z,12.23
2023-03-08T01:51:25.441Z,13.32
2023-03-08T01:53:28.394Z,14.07
2023-03-08T01:55:31.422Z,10.45
2023-03-08T01:57:36.711Z,13.25
2023-03-08T01:59:40.513Z,13.50
2023-03-08T02:01:45.069Z,16.30
2023-03-08T02:03:49.038Z,11.55
2023-03-08T02:05:54.255Z,17.00
2023-03-08T02:07:58.507Z,11.63
2023-03-08T02:10:05.249Z,13.43
2023-03-08T02:12:12.460Z,11.75
2023-03-08T02:14:15.419Z,13.13
2023-03-08T02:16:22.796Z,13.88
2023-03-08T02:18:26.961Z,14.73
2023-03-08T02:20:31.785Z,12.35
2023-03-08T02:22:40.577Z,15.52
2023-03-08T02:24:43.929Z,11.30
2023-03-08T02:26:48.191Z,13.25
2023-03-08T02:28:50.952Z,10.75
2023-03-08T02:30:56.537Z,11.73
2023-03-08T02:32:59.379Z,13.83
2023-03-08T02:35:04.864Z,13.15
2023-03-08T02:37:09.354Z,14.77
2023-03-08T02:39:13.778Z,14.43
2023-03-08T02:41:16.838Z,12.32
2023-03-08T02:43:22.810Z,12.02
2023-03-08T02:45:25.595Z,13.05
2023-03-08T02:47:28.447Z,15.00
2023-03-08T02:49:31.223Z,14.80
2023-03-08T02:51:34.084Z,12.52
2023-03-08T02:53:36.912Z,15.57
2023-03-08T02:55:41.056Z,21.48
2023-03-08T02:57:46.119Z,20.83
2023-03-08T02:59:50.053Z,16.77
2023-03-08T03:01:53.411Z,19.15
2023-03-08T03:03:57.488Z,15.55
2023-03-08T03:06:00.402Z,17.38
2023-03-08T03:08:07.864Z,15.93
2023-03-08T03:10:13.860Z,17.70
2023-03-08T03:12:19.351Z,13.27
2023-03-08T03:14:22.311Z,15.23
2023-03-08T03:16:25.838Z,10.95
2023-03-08T03:18:28.841Z,13.45
2023-03-08T03:20:32.610Z,12.88
2023-03-08T03:22:35.891Z,13.98
2023-03-08T03:24:39.541Z,11.05
2023-03-08T03:26:43.708Z,12.18
2023-03-08T03:28:48.179Z,12.80
2023-03-08T03:30:51.400Z,12.55
2023-03-08T03:32:54.364Z,13.05
2023-03-08T03:35:02.243Z,15.55
2023-03-08T03:37:05.451Z,13.27
2023-03-08T03:39:08.450Z,12.88
2023-03-08T03:41:15.587Z,12.38
2023-03-08T03:43:18.524Z,13.68
2023-03-08T03:45:22.763Z,13.45
2023-03-08T03:47:25.632Z,12.30
2023-03-08T03:49:33.059Z,11.98
2023-03-08T03:51:35.879Z,12.52
2023-03-08T03:53:53.661Z,13.32
2023-03-08T03:56:02.455Z,14.63
2023-03-08T03:58:06.180Z,15.32
2023-03-08T04:00:10.404Z,13.68
2023-03-08T04:02:25.793Z,12.90
2023-03-08T04:04:33.542Z,13.27
2023-03-08T04:06:37.468Z,13.95
2023-03-08T04:08:43.509Z,14.98
2023-03-08T04:10:50.176Z,13.35
2023-03-08T04:12:53.707Z,12.80
2023-03-08T04:17:04.764Z,14.23
2023-03-08T04:19:15.889Z,12.07
2023-03-08T04:21:25.510Z,15.18
2023-03-08T04:23:30.798Z,12.27
2023-03-08T04:25:33.690Z,12.65
2023-03-08T04:27:37.463Z,16.55
2023-03-08T04:29:40.321Z,13.40
2023-03-08T04:31:43.752Z,15.05
2023-03-08T04:33:50.752Z,16.67
2023-03-08T04:35:55.249Z,12.60
2023-03-08T04:38:00.678Z,15.55
2023-03-08T04:40:09.232Z,12.68
2023-03-08T04:42:17.213Z,14.00
2023-03-08T04:44:21.388Z,17.42
2023-03-08T04:46:28.654Z,14.63
2023-03-08T04:48:32.211Z,18.48
2023-03-08T04:50:35.121Z,16.08
2023-03-08T04:52:40.276Z,16.83
2023-03-08T04:54:43.258Z,16.25
2023-03-08T04:57:01.364Z,13.38
2023-03-08T04:59:05.848Z,14.15
2023-03-08T05:01:13.859Z,14.80
2023-03-08T05:03:17.904Z,17.23
2023-03-08T05:05:20.790Z,15.20
2023-03-08T05:07:24.043Z,15.30
2023-03-08T05:09:30.371Z,17.00
2023-03-08T05:11:33.348Z,18.58
2023-03-08T05:13:39.716Z,17.23
2023-03-08T05:15:44.372Z,18.23
2023-03-08T05:17:47.135Z,16.50
2023-03-08T05:19:50.379Z,15.23
2023-03-08T05:21:58.042Z,21.10
2023-03-08T05:24:01.238Z,17.88
2023-03-08T05:26:12.078Z,21.02
2023-03-08T05:28:15.959Z,20.63
2023-03-08T05:30:20.508Z,22.83
2023-03-08T05:32:23.880Z,24.67
2023-03-08T05:34:27.586Z,17.23
2023-03-08T05:36:30.400Z,22.70
2023-03-08T05:38:34.840Z,19.17
2023-03-08T05:40:41.267Z,19.92
2023-03-08T05:42:45.678Z,20.98
2023-03-08T05:44:50.197Z,18.35
2023-03-08T05:46:57.680Z,19.45
2023-03-08T05:49:01.564Z,18.33
2023-03-08T05:51:09.593Z,22.17
2023-03-08T05:55:15.524Z,21.73
2023-03-08T05:57:19.409Z,20.85
2023-03-08T05:59:24.769Z,18.38
2023-03-08T06:01:41.114Z,16.65
2023-03-08T06:03:56.057Z,21.95
2023-03-08T06:06:00.944Z,19.40
2023-03-08T06:08:03.829Z,18.55
2023-03-08T06:10:08.008Z,23.42
2023-03-08T06:12:10.813Z,17.48
2023-03-08T06:14:13.680Z,17.52
2023-03-08T06:16:19.032Z,16.02
2023-03-08T06:18:21.958Z,19.58
2023-03-08T06:20:24.818Z,16.83
2023-03-08T06:22:28.306Z,18.20
2023-03-08T06:24:32.126Z,17.83
2023-03-08T06:26:37.890Z,17.90
2023-03-08T06:28:41.410Z,17.40
2023-03-08T06:32:49.995Z,19.83
2023-03-08T06:34:52.812Z,16.25
2023-03-08T06:36:59.614Z,19.17
2023-03-08T06:39:03.301Z,19.63
2023-03-08T06:41:08.600Z,21.00
2023-03-08T06:43:11.699Z,20.25
2023-03-08T06:45:14.695Z,20.52
2023-03-08T06:47:17.503Z,22.02
2023-03-08T06:49:21.686Z,18.48
2023-03-08T06:51:24.692Z,18.70
2023-03-08T06:53:28.048Z,17.20
2023-03-08T06:55:36.615Z,19.08
2023-03-08T06:57:39.448Z,17.83
2023-03-08T06:59:42.329Z,16.50
2023-03-08T07:01:45.247Z,21.02
2023-03-08T07:14:35.906Z,15.88
2023-03-08T07:16:44.544Z,19.92
2023-03-08T07:19:07.825Z,14.93
2023-03-08T07:21:12.172Z,18.75
2023-03-08T07:23:15.796Z,17.13
2023-03-08T07:25:20.674Z,20.10
2023-03-08T07:27:23.543Z,15.40
2023-03-08T07:29:26.478Z,16.75
2023-03-08T07:31:32.435Z,18.90
2023-03-08T07:33:35.674Z,19.88
2023-03-08T07:35:40.033Z,15.88
2023-03-08T07:37:45.606Z,15.88
2023-03-08T07:39:48.441Z,16.40
2023-03-08T07:41:51.276Z,17.85
2023-03-08T07:43:54.030Z,18.67
2023-03-08T07:46:02.415Z,15.88
2023-03-08T07:50:11.019Z,17.83
2023-03-08T07:52:13.901Z,18.30
2023-03-08T07:54:16.638Z,20.23
2023-03-08T07:56:19.624Z,18.13
2023-03-08T07:58:22.960Z,23.30
2023-03-08T08:00:26.356Z,21.13
2023-03-08T08:02:29.153Z,20.50
2023-03-08T08:04:35.853Z,21.02
2023-03-08T08:06:41.306Z,20.80
2023-03-08T08:08:44.125Z,19.88
2023-03-08T08:10:46.968Z,17.45
2023-03-08T08:12:49.878Z,18.35
2023-03-08T08:14:53.056Z,20.98
2023-03-08T08:16:55.859Z,23.38
2023-03-08T08:18:59.048Z,17.67
2023-03-08T08:21:05.116Z,19.73
2023-03-08T08:23:08.572Z,23.98
2023-03-08T08:25:12.430Z,21.13
2023-03-08T08:27:15.483Z,19.40
2023-03-08T08:29:18.477Z,24.35
2023-03-08T08:31:23.581Z,21.67
2023-03-08T08:33:26.480Z,20.88
2023-03-08T08:35:42.428Z,18.90
2023-03-08T08:37:47.059Z,20.75
2023-03-08T08:39:49.953Z,25.17
2023-03-08T08:41:52.832Z,23.50
2023-03-08T08:43:58.877Z,21.45
2023-03-08T08:46:02.584Z,21.35
2023-03-08T08:48:05.853Z,21.90
2023-03-08T08:50:09.774Z,24.73
2023-03-08T08:52:12.628Z,20.80
2023-03-08T08:54:16.954Z,26.02
2023-03-08T08:56:29.062Z,22.17
2023-03-08T08:58:35.448Z,23.00
2023-03-08T09:00:38.421Z,18.90
2023-03-08T09:02:41.322Z,21.27
2023-03-08T09:04:44.527Z,22.92
2023-03-08T09:06:48.329Z,20.63
2023-03-08T09:08:51.589Z,19.35
2023-03-08T09:10:55.779Z,21.77
2023-03-08T09:13:00.146Z,21.40
2023-03-08T09:15:02.959Z,22.05
2023-03-08T09:17:06.800Z,28.00
2023-03-08T09:19:09.774Z,20.58
2023-03-08T09:21:12.677Z,19.50
2023-03-08T09:23:15.544Z,24.38
2023-03-08T09:25:19.532Z,18.58
2023-03-08T09:27:23.744Z,20.35
2023-03-08T09:29:26.614Z,16.88
2023-03-08T09:31:29.459Z,21.83
2023-03-08T09:33:32.405Z,21.58
2023-03-08T09:35:35.284Z,19.63
2023-03-08T09:37:38.960Z,18.67
2023-03-08T09:39:41.853Z,17.90
2023-03-08T09:41:53.826Z,19.20
2023-03-08T09:44:12.964Z,16.00
2023-03-08T09:46:19.998Z,17.90
2023-03-08T09:48:27.494Z,16.40
2023-03-08T09:50:40.294Z,17.42
2023-03-08T09:52:48.451Z,22.58
2023-03-08T09:54:52.844Z,20.33
2023-03-08T09:56:56.419Z,20.13
2023-03-08T09:59:06.756Z,17.08
2023-03-08T10:01:26.113Z,18.02
2023-03-08T10:03:47.015Z,20.70
2023-03-08T10:05:54.865Z,18.27
2023-03-08T10:08:04.347Z,16.17
2023-03-08T10:10:23.258Z,21.30
2023-03-08T10:12:33.676Z,15.60
2023-03-08T10:14:41.376Z,20.45
2023-03-08T10:16:48.815Z,16.58
2023-03-08T10:18:56.188Z,16.30
2023-03-08T10:21:02.088Z,18.60
2023-03-08T10:23:14.709Z,17.85
2023-03-08T10:25:24.446Z,14.50
2023-03-08T10:27:29.277Z,17.05
2023-03-08T10:29:32.129Z,18.30
2023-03-08T10:31:36.329Z,16.90
2023-03-08T10:33:39.149Z,16.42
2023-03-08T10:35:55.421Z,17.27
2023-03-08T10:37:58.258Z,14.82
2023-03-08T10:40:05.841Z,17.00
2023-03-08T10:42:16.511Z,18.02
2023-03-08T10:44:33.594Z,18.42
2023-03-08T10:46:47.606Z,18.33
2023-03-08T10:48:50.706Z,16.60
2023-03-08T10:51:00.336Z,19.48
2023-03-08T10:53:11.471Z,19.20
2023-03-08T10:55:16.533Z,18.92
2023-03-08T10:57:21.586Z,18.02
2023-03-08T10:59:32.248Z,17.98
2023-03-08T11:01:49.083Z,16.58
2023-03-08T11:03:59.628Z,16.58
2023-03-08T11:06:05.662Z,17.10
2023-03-08T11:08:18.036Z,20.80
2023-03-08T11:10:24.547Z,18.38
2023-03-08T11:12:27.990Z,16.02
2023-03-08T11:14:31.148Z,17.88
2023-03-08T11:16:52.620Z,17.17
2023-03-08T11:19:04.193Z,17.08
2023-03-08T11:21:14.884Z,18.20
2023-03-08T11:23:26.396Z,17.25
2023-03-08T11:25:37.401Z,17.75
2023-03-08T11:27:59.249Z,17.42
2023-03-08T11:30:15.167Z,20.42
2023-03-08T11:32:39.449Z,17.15
2023-03-08T11:34:52.128Z,19.58
2023-03-08T11:37:02.864Z,20.90
2023-03-08T11:39:19.163Z,18.27
2023-03-08T11:41:28.847Z,15.70
2023-03-08T11:43:54.244Z,20.38
2023-03-08T11:46:02.990Z,18.05
2023-03-08T11:48:39.419Z,17.23
2023-03-08T11:53:02.222Z,18.77
2023-03-08T11:55:22.881Z,19.13
2023-03-08T11:57:29.920Z,20.25
2023-03-08T11:59:36.495Z,17.15
2023-03-08T12:01:45.760Z,19.02
2023-03-08T12:03:53.595Z,15.70
2023-03-08T12:06:00.337Z,18.77
2023-03-08T12:08:06.528Z,16.02
2023-03-08T12:10:19.556Z,17.60
2023-03-08T12:12:28.416Z,17.10
2023-03-08T12:14:33.301Z,20.08
2023-03-08T12:16:45.935Z,18.13
2023-03-08T12:18:55.533Z,20.02
2023-03-08T12:21:09.803Z,16.58
2023-03-08T12:23:25.098Z,23.88
2023-03-08T12:25:31.557Z,17.85
2023-03-08T12:27:42.160Z,20.83
2023-03-08T12:29:48.912Z,16.85
2023-03-08T12:31:52.879Z,17.15
2023-03-08T12:33:56.958Z,20.07
2023-03-08T12:36:03.722Z,16.77
2023-03-08T12:38:27.968Z,16.70
2023-03-08T12:40:38.570Z,18.40
2023-03-08T12:42:42.524Z,19.42
2023-03-08T12:44:45.569Z,19.90
2023-03-08T12:47:02.199Z,16.23
2023-03-08T12:49:20.085Z,19.60
2023-03-08T12:51:31.651Z,15.98
2023-03-08T12:53:39.823Z,18.85
2023-03-08T12:55:42.928Z,16.77
2023-03-08T12:57:50.205Z,15.05
2023-03-08T12:59:58.583Z,15.88
2023-03-08T13:02:03.693Z,17.02
2023-03-08T13:04:39.236Z,15.77
2023-03-08T13:07:10.431Z,15.63
2023-03-08T13:09:19.940Z,15.35
2023-03-08T13:11:25.322Z,15.35
2023-03-08T13:13:39.210Z,16.40
2023-03-08T13:15:42.333Z,17.33
2023-03-08T13:17:51.417Z,17.13
2023-03-08T13:19:55.399Z,16.00
2023-03-08T13:22:10.305Z,14.45
2023-03-08T13:24:20.485Z,13.13
2023-03-08T13:26:49.400Z,15.30
2023-03-08T13:28:54.473Z,13.45
2023-03-08T13:31:00.201Z,15.03
2023-03-08T13:33:09.382Z,15.82
2023-03-08T13:35:16.385Z,15.18
2023-03-08T13:37:23.244Z,16.08
2023-03-08T13:39:30.022Z,13.63
2023-03-08T13:41:38.246Z,14.25
2023-03-08T13:43:41.114Z,13.85
2023-03-08T13:45:48.086Z,11.68
2023-03-08T13:47:51.319Z,10.88
2023-03-08T13:49:56.556Z,8.63
2023-03-08T13:52:02.150Z,8.77
2023-03-08T13:54:05.129Z,7.78
2023-03-08T13:56:22.904Z,7.05
2023-03-08T13:58:33.437Z,7.60
2023-03-08T14:00:37.132Z,8.27
2023-03-08T14:02:46.982Z,5.72
2023-03-08T14:04:49.969Z,5.55
2023-03-08T14:06:54.397Z,10.50
2023-03-08T14:09:00.470Z,6.72
2023-03-08T14:11:06.176Z,3.85
2023-03-08T14:13:20.122Z,4.63
2023-03-08T14:15:23.033Z,6.55
2023-03-08T14:17:28.446Z,4.22
2023-03-08T14:19:34.886Z,4.13
2023-03-08T14:21:38.281Z,3.13
2023-03-08T14:23:43.139Z,5.72
2023-03-08T14:27:49.045Z,3.78
2023-03-08T14:30:03.594Z,12.63
2023-03-08T14:32:27.680Z,2.83
2023-03-08T14:34:33.923Z,4.15
2023-03-08T14:36:36.844Z,2.92
2023-03-08T14:38:39.765Z,5.32
2023-03-08T14:40:49.053Z,3.15
2023-03-08T14:42:54.766Z,4.60
2023-03-08T14:45:01.408Z,3.40
2023-03-08T14:47:09.857Z,3.20
2023-03-08T14:49:21.843Z,2.65
2023-03-08T14:51:30.528Z,1.67
2023-03-08T14:53:35.352Z,3.20
2023-03-08T14:57:43.483Z,1.48
2023-03-08T14:59:46.813Z,2.35
2023-03-08T15:01:51.110Z,2.03
2023-03-08T15:03:54.067Z,2.13
2023-03-08T15:05:57.536Z,3.03
2023-03-08T15:08:01.280Z,3.70
2023-03-08T15:10:06.949Z,1.92
2023-03-08T15:12:12.154Z,1.90
2023-03-08T15:14:17.142Z,3.25
2023-03-08T15:16:20.411Z,4.55
2023-03-08T15:18:24.613Z,2.85
2023-03-08T15:20:27.421Z,2.05
2023-03-08T15:22:30.430Z,3.05
2023-03-08T15:24:33.295Z,5.65
2023-03-08T15:26:38.180Z,43.67
2023-03-08T15:30:44.181Z,4.68
2023-03-08T15:32:47.167Z,5.32
2023-03-08T15:34:51.272Z,6.68
2023-03-08T15:36:55.441Z,9.38
2023-03-08T15:38:59.623Z,7.28
2023-03-08T15:41:04.819Z,2.08
2023-03-08T15:43:08.372Z,3.70
2023-03-08T15:45:12.512Z,39.45
2023-03-08T15:47:15.362Z,6.80
2023-03-08T15:49:18.117Z,12.68
2023-03-08T15:51:24.892Z,8.48
2023-03-08T15:53:35.369Z,9.00
2023-03-08T15:55:40.229Z,10.88
2023-03-08T15:57:43.135Z,8.30
2023-03-08T15:59:45.917Z,6.47
2023-03-08T16:01:48.717Z,4.97
2023-03-08T16:03:53.636Z,4.25
2023-03-08T16:05:56.501Z,3.67
2023-03-08T16:08:02.555Z,5.32
2023-03-08T16:10:06.966Z,2.75
2023-03-08T16:12:10.164Z,4.03
2023-03-08T16:14:17.575Z,3.90
2023-03-08T16:16:21.334Z,7.90
2023-03-08T16:18:24.135Z,6.55
2023-03-08T16:20:26.908Z,5.10
2023-03-08T16:22:29.709Z,5.60
2023-03-08T16:24:33.832Z,10.55
2023-03-08T16:26:36.655Z,8.68
2023-03-08T16:28:39.975Z,6.60
2023-03-08T16:30:42.995Z,6.78
2023-03-08T16:32:45.867Z,7.47
2023-03-08T16:34:50.915Z,5.78
2023-03-08T16:36:54.064Z,6.75
2023-03-08T16:38:56.851Z,7.03
2023-03-08T16:41:12.287Z,8.57
2023-03-08T16:43:17.442Z,8.40
2023-03-08T16:45:20.241Z,6.78
2023-03-08T16:47:24.374Z,4.65
2023-03-08T16:49:28.538Z,6.35
2023-03-08T16:51:31.706Z,8.30
2023-03-08T16:53:34.534Z,8.30
2023-03-08T16:55:37.473Z,9.18
2023-03-08T16:57:41.645Z,6.10
2023-03-08T16:59:45.160Z,10.80
2023-03-08T17:01:48.138Z,11.95
2023-03-08T17:03:51.182Z,15.50
2023-03-08T17:05:55.344Z,7.35
2023-03-08T17:07:58.165Z,9.50
2023-03-08T17:10:01.944Z,6.13
2023-03-08T17:12:05.586Z,13.85
2023-03-08T17:14:11.796Z,13.38
2023-03-08T17:16:14.808Z,6.63
2023-03-08T17:18:17.655Z,7.07
2023-03-08T17:20:20.622Z,9.60
2023-03-08T17:22:23.397Z,8.40
2023-03-08T17:24:27.902Z,12.30
2023-03-08T17:26:30.795Z,15.38
2023-03-08T17:28:33.849Z,10.00
2023-03-08T17:30:41.261Z,16.23
2023-03-08T17:32:44.121Z,9.48
2023-03-08T17:34:46.993Z,6.80
2023-03-08T17:36:50.056Z,5.20
2023-03-08T17:38:54.137Z,6.97
2023-03-08T17:40:56.928Z,2.67
2023-03-08T17:43:02.337Z,3.25
2023-03-08T17:45:06.457Z,2.92
2023-03-08T17:47:13.116Z,4.85
2023-03-08T17:49:22.991Z,3.90
2023-03-08T17:51:28.986Z,2.58
2023-03-08T17:53:32.229Z,2.55
2023-03-08T17:55:35.053Z,1.92
2023-03-08T17:57:38.603Z,3.17
2023-03-08T17:59:41.352Z,9.57
2023-03-08T18:01:44.553Z,3.55
2023-03-08T18:03:49.382Z,3.35
2023-03-08T18:07:55.484Z,3.38
2023-03-08T18:09:58.332Z,2.58
2023-03-08T18:12:01.243Z,2.67
2023-03-08T18:14:04.611Z,7.05
2023-03-08T18:16:07.895Z,2.00
2023-03-08T18:18:10.786Z,3.72
2023-03-08T18:20:15.086Z,3.08
2023-03-08T18:22:17.969Z,2.22
2023-03-08T18:24:21.611Z,3.42
2023-03-08T18:26:24.646Z,2.42
2023-03-08T18:28:27.550Z,1.88
2023-03-08T18:30:37.239Z,2.70
2023-03-08T18:32:43.334Z,5.03
2023-03-08T18:34:47.779Z,6.72
2023-03-08T18:36:51.985Z,5.65
2023-03-08T18:38:54.830Z,5.38
2023-03-08T18:40:57.667Z,6.55
2023-03-08T18:43:00.790Z,8.80
2023-03-08T18:45:06.917Z,9.95
2023-03-08T18:47:09.821Z,6.63
2023-03-08T18:49:13.882Z,6.95
2023-03-08T18:51:16.850Z,6.68
2023-03-08T18:53:21.215Z,8.00
2023-03-08T18:55:24.117Z,7.20
2023-03-08T18:57:26.977Z,16.10
2023-03-08T18:59:33.118Z,7.28
2023-03-08T19:01:36.670Z,11.95
2023-03-08T19:03:40.589Z,7.15
2023-03-08T19:05:43.671Z,8.10
2023-03-08T19:07:46.665Z,9.15
2023-03-08T19:09:54.703Z,9.27
2023-03-08T19:11:57.540Z,8.93
2023-03-08T19:14:00.500Z,14.77
2023-03-08T19:16:03.415Z,14.75
2023-03-08T19:18:07.474Z,7.90
2023-03-08T19:20:11.684Z,7.65
2023-03-08T19:22:15.272Z,7.97
2023-03-08T19:24:21.115Z,9.70
2023-03-08T19:26:40.887Z,10.73
2023-03-08T19:28:43.702Z,9.05
2023-03-08T19:30:46.470Z,16.55
2023-03-08T19:32:49.522Z,7.30
2023-03-08T19:34:52.413Z,4.03
2023-03-08T19:36:55.664Z,4.28
2023-03-08T19:38:58.738Z,3.33
2023-03-08T19:41:01.580Z,5.95
2023-03-08T19:43:05.778Z,2.78
2023-03-08T19:45:10.020Z,3.10
2023-03-08T19:47:12.897Z,4.13
2023-03-08T19:49:18.347Z,3.58
2023-03-08T19:51:21.433Z,4.03
2023-03-08T19:53:24.328Z,4.30
2023-03-08T19:55:27.233Z,2.85
2023-03-08T19:57:30.095Z,3.25
2023-03-08T19:59:36.605Z,3.20
2023-03-08T20:01:40.313Z,10.80
2023-03-08T20:03:43.811Z,8.02
2023-03-08T20:05:48.747Z,4.10
2023-03-08T20:07:51.653Z,4.80
2023-03-08T20:09:54.629Z,3.05
2023-03-08T20:11:59.062Z,4.65
2023-03-08T20:14:02.081Z,3.78
2023-03-08T20:16:07.403Z,4.38
2023-03-08T20:18:10.325Z,4.07
2023-03-08T20:20:13.976Z,2.72
2023-03-08T20:22:16.856Z,3.90
2023-03-08T20:24:20.643Z,7.20
2023-03-08T20:26:23.719Z,8.07
2023-03-08T20:28:26.875Z,7.43
2023-03-08T20:30:30.196Z,8.88
2023-03-08T20:32:34.510Z,6.55
2023-03-08T20:34:38.591Z,12.18
2023-03-08T20:36:41.506Z,10.68
2023-03-08T20:38:45.255Z,8.82
2023-03-08T20:40:59.196Z,6.20
2023-03-08T20:43:02.094Z,7.20
2023-03-08T20:45:05.586Z,8.45
2023-03-08T20:47:08.436Z,7.18
2023-03-08T20:49:12.671Z,6.93
2023-03-08T20:51:18.937Z,14.70
2023-03-08T20:53:21.765Z,9.48
2023-03-08T20:55:24.570Z,9.52
2023-03-08T20:57:27.571Z,8.35
2023-03-08T20:59:30.428Z,9.10
2023-03-08T21:01:33.487Z,6.65
2023-03-08T21:03:37.046Z,9.43
2023-03-08T21:05:41.260Z,8.95
2023-03-08T21:07:44.077Z,8.20
2023-03-08T21:09:46.933Z,6.55
2023-03-08T21:11:50.960Z,9.00
2023-03-08T21:13:55.315Z,7.82
2023-03-08T21:16:01.561Z,6.53
2023-03-08T21:18:04.616Z,7.97
2023-03-08T21:20:09.382Z,5.60
2023-03-08T21:24:18.678Z,7.30
2023-03-08T21:26:21.872Z,6.35
2023-03-08T21:28:24.752Z,6.03
2023-03-08T21:30:28.264Z,6.82
2023-03-08T21:32:31.456Z,8.32
2023-03-08T21:34:34.454Z,4.03
2023-03-08T21:36:38.608Z,6.68
2023-03-08T21:38:42.906Z,4.72
2023-03-08T21:40:45.704Z,4.32
2023-03-08T21:42:48.480Z,5.82
2023-03-08T21:44:51.346Z,4.50
2023-03-08T21:46:55.399Z,5.03
2023-03-08T21:48:58.483Z,4.15
2023-03-08T21:51:01.271Z,4.35
2023-03-08T21:53:04.094Z,3.72
2023-03-08T21:55:09.038Z,2.60
2023-03-08T21:59:16.553Z,3.05
2023-03-08T22:03:23.092Z,4.55
2023-03-08T22:05:26.032Z,3.90
2023-03-08T22:07:31.101Z,3.75
2023-03-08T22:09:33.873Z,5.18
2023-03-08T22:11:38.099Z,8.65
2023-03-08T22:13:41.115Z,5.38
2023-03-08T22:15:43.951Z,9.98
2023-03-08T22:17:46.819Z,5.05
2023-03-08T22:19:51.831Z,4.10
2023-03-08T22:21:54.632Z,4.28
2023-03-08T22:23:59.229Z,5.20
2023-03-08T22:26:02.164Z,3.90
2023-03-08T22:28:06.337Z,4.47
2023-03-08T22:30:11.555Z,2.50
2023-03-08T22:32:14.334Z,4.47
2023-03-08T22:34:17.168Z,6.15
2023-03-08T22:36:21.597Z,3.75
2023-03-08T22:38:24.356Z,4.25
2023-03-08T22:40:27.307Z,4.22
2023-03-08T22:42:30.201Z,4.32
2023-03-08T22:44:34.330Z,3.22
2023-03-08T22:46:37.342Z,2.38
2023-03-08T22:48:40.327Z,4.97
2023-03-08T22:50:43.213Z,3.83
2023-03-08T22:52:46.073Z,3.00
2023-03-08T22:54:48.927Z,8.57
2023-03-08T22:56:52.097Z,5.68
2023-03-08T22:58:55.058Z,5.18
2023-03-08T23:00:59.268Z,4.70
2023-03-08T23:03:02.207Z,5.70
2023-03-08T23:05:05.443Z,6.00
2023-03-08T23:07:08.567Z,6.15
2023-03-08T23:09:12.660Z,3.75
2023-03-08T23:11:15.756Z,5.32
2023-03-08T23:13:32.722Z,6.97
2023-03-08T23:15:36.066Z,6.65
2023-03-08T23:17:40.683Z,4.82
2023-03-08T23:19:45.032Z,3.80
2023-03-08T23:21:48.587Z,4.72
2023-03-08T23:23:51.770Z,4.93
2023-03-08T23:25:54.599Z,5.43
2023-03-08T23:27:57.398Z,6.32
2023-03-08T23:30:00.232Z,8.15
2023-03-08T23:32:03.069Z,5.70
2023-03-08T23:34:07.168Z,4.00
2023-03-08T23:36:11.559Z,3.75
2023-03-08T23:38:14.481Z,4.50
2023-03-08T23:40:18.098Z,5.78
2023-03-08T23:42:20.941Z,7.50
2023-03-08T23:44:23.703Z,5.15
2023-03-08T23:46:27.327Z,4.32
2023-03-08T23:48:30.145Z,10.95
2023-03-08T23:50:34.610Z,3.80
2023-03-08T23:52:37.384Z,3.78
2023-03-08T23:54:40.296Z,5.00
2023-03-08T23:56:44.123Z,5.88
2023-03-08T23:58:49.260Z,7.15
